Time;durP1;ratioP1;P1;durP2;ratioP2;P2;SDS_P1;SDS_P2;PMS_P1;PMS_P2;Temp;Humidity;BMP_temperature;BMP_pressure;BME280_temperature;BME280_humidity;BME280_pressure;Samples;Min_cycle;Max_cycle;Signal;HPM_P1;HPM_P2
2023/03/20 00:01:13;;;;;;;2.50;1.17;;;11.20;70.40;;;;;;5056112;28;20244;-69
2023/03/20 00:03:46;;;;;;;3.00;1.80;;;11.20;70.90;;;;;;5056957;28;20241;-70
2023/03/20 00:06:16;;;;;;;2.40;1.10;;;11.10;71.20;;;;;;5075603;28;20267;-69
2023/03/20 00:08:46;;;;;;;2.05;1.20;;;11.10;71.40;;;;;;5075508;28;20312;-69
2023/03/20 00:11:29;;;;;;;2.60;1.35;;;11.20;71.40;;;;;;5076017;28;20212;-70
2023/03/20 00:14:00;;;;;;;3.47;1.75;;;11.20;72.00;;;;;;5075398;28;20182;-69
2023/03/20 00:16:33;;;;;;;2.85;1.25;;;11.20;72.10;;;;;;5075721;28;20197;-69
2023/03/20 00:19:02;;;;;;;2.53;1.35;;;11.20;72.30;;;;;;5074875;28;20628;-70
2023/03/20 00:21:33;;;;;;;2.83;1.45;;;11.30;72.70;;;;;;5075454;28;20214;-69
2023/03/20 00:24:02;;;;;;;2.72;1.60;;;11.20;73.40;;;;;;5075498;28;20259;-69
2023/03/20 00:26:34;;;;;;;2.75;1.75;;;11.20;73.50;;;;;;5075091;28;20689;-69
2023/03/20 00:29:04;;;;;;;3.05;1.75;;;11.20;73.90;;;;;;5075233;28;20536;-69
2023/03/20 00:31:33;;;;;;;2.58;1.35;;;11.20;74.70;;;;;;5075321;28;20268;-69
2023/03/20 00:34:02;;;;;;;3.22;1.42;;;11.20;74.60;;;;;;5075044;28;20590;-69
2023/03/20 00:36:34;;;;;;;3.22;1.83;;;11.20;74.90;;;;;;5075289;28;20196;-69
2023/03/20 00:39:03;;;;;;;3.13;1.65;;;11.30;75.20;;;;;;5074867;28;20265;-69
2023/03/20 00:41:33;;;;;;;3.60;1.80;;;11.30;75.60;;;;;;5075534;28;20644;-69
2023/03/20 00:44:03;;;;;;;3.42;2.28;;;11.20;76.20;;;;;;5074591;28;20206;-69
2023/03/20 00:46:46;;;;;;;3.10;2.28;;;11.20;77.30;;;;;;5075278;28;20186;-69
2023/03/20 00:49:14;;;;;;;3.85;2.50;;;11.20;78.60;;;;;;5073596;28;20221;-70
2023/03/20 00:51:45;;;;;;;3.22;2.40;;;11.10;80.10;;;;;;5075126;28;20578;-69
2023/03/20 00:54:16;;;;;;;4.25;2.70;;;11.10;80.80;;;;;;5074563;28;20190;-69
2023/03/20 00:56:50;;;;;;;5.95;2.97;;;11.10;81.80;;;;;;5075040;28;20197;-69
2023/03/20 00:59:21;;;;;;;5.55;3.65;;;11.00;82.70;;;;;;5074526;28;20189;-70
2023/03/20 01:01:50;;;;;;;4.13;3.10;;;11.00;83.20;;;;;;5075076;28;20185;-69
2023/03/20 01:04:22;;;;;;;4.80;3.20;;;11.00;84.20;;;;;;5074226;28;20209;-69
2023/03/20 01:06:51;;;;;;;3.17;2.67;;;11.00;84.20;;;;;;5074623;28;20283;-69
2023/03/20 01:09:21;;;;;;;4.00;2.83;;;11.00;84.50;;;;;;5074510;28;20196;-69
2023/03/20 01:11:52;;;;;;;4.90;3.40;;;11.10;85.20;;;;;;5074800;28;20193;-69
2023/03/20 01:14:24;;;;;;;4.43;3.38;;;11.00;86.30;;;;;;5074335;28;20185;-69
2023/03/20 01:16:51;;;;;;;4.70;3.20;;;10.90;87.20;;;;;;5074874;28;20190;-70
2023/03/20 01:19:18;;;;;;;8.75;3.30;;;10.80;88.00;;;;;;5074613;28;20587;-69
2023/03/20 01:21:49;;;;;;;4.22;2.88;;;10.80;88.80;;;;;;5074299;28;20212;-70
2023/03/20 01:24:17;;;;;;;3.90;3.00;;;10.80;89.50;;;;;;5074156;28;20220;-70
2023/03/20 01:26:48;;;;;;;4.25;3.40;;;10.80;90.00;;;;;;5074756;28;20194;-69
2023/03/20 01:29:19;;;;;;;4.07;3.15;;;10.70;90.40;;;;;;5073637;28;20268;-69
2023/03/20 01:31:47;;;;;;;5.47;3.85;;;10.70;90.90;;;;;;5073808;28;20201;-69
2023/03/20 01:34:20;;;;;;;4.70;3.65;;;10.70;91.00;;;;;;5074242;28;20212;-69
2023/03/20 01:36:50;;;;;;;5.30;3.88;;;10.70;91.00;;;;;;5074178;28;20234;-69
2023/03/20 01:39:23;;;;;;;5.50;3.72;;;10.80;90.80;;;;;;5074062;28;20212;-70
2023/03/20 01:41:53;;;;;;;3.90;3.20;;;10.80;90.80;;;;;;5074014;28;20265;-69
2023/03/20 01:44:23;;;;;;;4.28;3.20;;;10.80;90.80;;;;;;5073669;28;20297;-69
2023/03/20 01:46:56;;;;;;;4.90;2.92;;;10.80;90.80;;;;;;5074148;28;20645;-69
2023/03/20 01:50:01;;;;;;;4.60;2.60;;;10.80;90.60;;;;;;5073603;28;20194;-69
2023/03/20 01:52:29;;;;;;;3.72;2.67;;;10.80;90.50;;;;;;5073537;28;20190;-69
2023/03/20 01:54:58;;;;;;;3.75;2.85;;;10.80;90.80;;;;;;5073403;28;20186;-69
2023/03/20 01:57:30;;;;;;;3.70;2.60;;;10.70;90.50;;;;;;5073916;28;20194;-69
2023/03/20 02:00:03;;;;;;;4.00;2.78;;;10.70;90.60;;;;;;5073228;28;20261;-70
2023/03/20 02:02:32;;;;;;;4.68;2.42;;;10.70;90.80;;;;;;5073816;28;20242;-69
2023/03/20 02:05:08;;;;;;;5.75;2.80;;;10.70;91.00;;;;;;5073064;28;20209;-69
2023/03/20 02:07:36;;;;;;;7.88;2.70;;;10.70;90.90;;;;;;5073531;28;20222;-69
2023/03/20 02:10:05;;;;;;;3.00;2.15;;;10.60;90.90;;;;;;5073239;28;20683;-70
2023/03/20 02:12:36;;;;;;;3.97;2.80;;;10.60;91.10;;;;;;5073324;28;20537;-69
2023/03/20 02:15:06;;;;;;;4.60;2.17;;;10.60;91.00;;;;;;5072653;28;20208;-70
2023/03/20 02:17:34;;;;;;;2.80;1.90;;;10.60;91.00;;;;;;5053454;28;20280;-69
2023/03/20 02:20:11;;;;;;;2.60;1.88;;;10.50;91.10;;;;;;5070563;28;20208;-69
2023/03/20 02:23:23;;;;;;;3.22;2.20;;;10.60;91.00;;;;;;5072830;28;20186;-72
2023/03/20 02:26:19;;;;;;;3.80;2.13;;;10.50;91.10;;;;;;5073359;28;20217;-69
2023/03/20 02:29:41;;;;;;;3.17;1.85;;;10.50;91.20;;;;;;5072601;28;20186;-69
2023/03/20 02:32:41;;;;;;;3.97;2.40;;;10.50;91.00;;;;;;5071923;28;20189;-69
2023/03/20 02:35:37;;;;;;;3.05;1.90;;;10.50;90.90;;;;;;5071644;28;20232;-79
2023/03/20 02:38:36;;;;;;;3.70;2.17;;;10.50;90.90;;;;;;5057090;28;20229;-69
2023/03/20 02:41:10;;;;;;;3.58;1.80;;;10.50;91.10;;;;;;5028610;28;20193;-69
2023/03/20 02:43:45;;;;;;;3.40;2.05;;;10.50;90.90;;;;;;5072847;28;20190;-69
2023/03/20 02:46:20;;;;;;;3.85;2.25;;;10.50;91.00;;;;;;5072375;28;20201;-72
2023/03/20 02:48:54;;;;;;;2.42;1.67;;;10.50;91.00;;;;;;5073144;28;20193;-70
2023/03/20 02:51:33;;;;;;;2.47;1.60;;;10.40;91.20;;;;;;5072401;28;20196;-70
2023/03/20 02:54:07;;;;;;;2.50;1.58;;;10.40;91.30;;;;;;5071637;28;20190;-70
2023/03/20 02:56:42;;;;;;;4.75;2.00;;;10.30;91.30;;;;;;5072542;28;20287;-70
2023/03/20 02:59:27;;;;;;;2.70;1.77;;;10.30;91.20;;;;;;5072637;28;20213;-69
2023/03/20 03:02:02;;;;;;;3.70;2.35;;;10.30;91.50;;;;;;5071858;28;20624;-69
2023/03/20 03:04:34;;;;;;;2.97;1.70;;;10.20;91.80;;;;;;5072162;28;20574;-69
2023/03/20 03:07:07;;;;;;;3.20;1.90;;;10.20;91.90;;;;;;5071894;28;20253;-75
2023/03/20 03:09:45;;;;;;;2.95;1.95;;;10.10;91.70;;;;;;5072503;28;20208;-69
2023/03/20 03:12:17;;;;;;;3.08;1.92;;;10.10;91.90;;;;;;5071574;28;20578;-69
2023/03/20 03:14:49;;;;;;;3.92;2.10;;;10.10;91.80;;;;;;5072276;28;20194;-71
2023/03/20 03:17:20;;;;;;;2.45;1.95;;;10.10;91.90;;;;;;5072452;28;20232;-69
2023/03/20 03:19:51;;;;;;;3.08;2.03;;;10.10;92.00;;;;;;5071968;28;20190;-70
2023/03/20 03:22:25;;;;;;;2.60;1.42;;;10.10;92.00;;;;;;5072362;28;20281;-69
2023/03/20 03:24:55;;;;;;;2.85;1.88;;;10.00;92.10;;;;;;5071988;28;20304;-70
2023/03/20 03:27:27;;;;;;;4.80;2.15;;;10.00;92.40;;;;;;5072004;28;20186;-69
2023/03/20 03:29:58;;;;;;;2.83;1.60;;;10.00;92.60;;;;;;5072239;28;20247;-70
2023/03/20 03:32:44;;;;;;;3.13;1.55;;;9.90;93.30;;;;;;5072272;28;20710;-71
2023/03/20 03:35:16;;;;;;;2.70;1.95;;;9.90;93.40;;;;;;5072408;28;20270;-70
2023/03/20 03:37:54;;;;;;;3.58;2.20;;;10.00;92.50;;;;;;5072094;28;20194;-69
2023/03/20 03:40:32;;;;;;;2.72;1.95;;;9.90;93.20;;;;;;5071611;28;20182;-69
2023/03/20 03:43:07;;;;;;;5.00;2.28;;;9.90;93.30;;;;;;5072120;28;20652;-70
2023/03/20 03:45:40;;;;;;;2.95;1.90;;;9.90;93.40;;;;;;5072093;28;20312;-69
2023/03/20 03:48:11;;;;;;;4.05;2.40;;;10.00;92.70;;;;;;5071720;28;20182;-69
2023/03/20 03:50:47;;;;;;;2.72;2.00;;;10.00;92.80;;;;;;5072082;28;20190;-69
2023/03/20 03:53:26;;;;;;;3.20;2.78;;;10.00;92.70;;;;;;5067923;28;20183;-69
2023/03/20 03:55:58;;;;;;;2.80;2.00;;;10.00;92.70;;;;;;5071296;28;20617;-71
2023/03/20 03:58:31;;;;;;;2.42;2.00;;;10.00;92.50;;;;;;5072191;28;20336;-69
2023/03/20 04:01:04;;;;;;;3.00;1.83;;;10.00;92.40;;;;;;5071657;28;20186;-69
2023/03/20 04:03:38;;;;;;;2.85;1.77;;;10.00;92.30;;;;;;5071706;28;20182;-70
2023/03/20 04:06:11;;;;;;;2.20;1.40;;;10.00;92.20;;;;;;5071444;28;20296;-69
2023/03/20 04:08:41;;;;;;;2.30;1.58;;;10.00;92.20;;;;;;5071972;28;20592;-69
2023/03/20 04:11:15;;;;;;;2.20;1.40;;;10.00;92.30;;;;;;5071678;28;20205;-69
2023/03/20 04:13:43;;;;;;;3.10;2.00;;;10.00;92.30;;;;;;5072227;28;20224;-70
2023/03/20 04:16:13;;;;;;;2.47;1.63;;;10.00;92.30;;;;;;5071586;28;20201;-69
2023/03/20 04:18:46;;;;;;;2.80;1.60;;;10.00;92.20;;;;;;5071901;28;20303;-69
2023/03/20 04:21:17;;;;;;;2.30;1.50;;;9.90;92.90;;;;;;5071565;28;20194;-69
2023/03/20 04:23:47;;;;;;;3.05;1.50;;;9.90;93.00;;;;;;5073249;28;20201;-69
2023/03/20 04:26:16;;;;;;;2.70;1.80;;;9.90;92.80;;;;;;5074946;28;20274;-70
2023/03/20 04:28:43;;;;;;;3.58;1.60;;;9.90;92.80;;;;;;5074971;28;20189;-69
2023/03/20 04:31:13;;;;;;;2.58;1.75;;;9.90;92.90;;;;;;5075146;28;20205;-69
2023/03/20 04:33:42;;;;;;;2.80;2.10;;;9.90;93.00;;;;;;5075718;28;20198;-69
2023/03/20 04:36:10;;;;;;;3.50;2.25;;;9.90;92.80;;;;;;5074929;28;20190;-69
2023/03/20 04:38:37;;;;;;;5.63;2.80;;;9.90;92.80;;;;;;5075192;28;20201;-69
2023/03/20 04:41:05;;;;;;;3.83;3.00;;;10.00;92.30;;;;;;5074973;28;20193;-69
2023/03/20 04:43:33;;;;;;;5.25;4.00;;;9.90;92.80;;;;;;5075207;28;20196;-69
2023/03/20 04:46:00;;;;;;;4.38;3.83;;;9.90;93.00;;;;;;5074710;28;20214;-69
2023/03/20 04:48:33;;;;;;;7.32;3.72;;;9.90;93.30;;;;;;5075036;28;20197;-69
2023/03/20 04:51:00;;;;;;;7.97;4.57;;;9.90;93.30;;;;;;5074253;28;20194;-69
2023/03/20 04:53:29;;;;;;;5.97;4.28;;;9.90;93.50;;;;;;5074907;28;20229;-69
2023/03/20 04:55:56;;;;;;;11.35;4.50;;;9.90;93.40;;;;;;5074625;28;20196;-69
2023/03/20 04:58:24;;;;;;;5.50;4.18;;;9.90;93.60;;;;;;5074790;28;20281;-69
2023/03/20 05:00:53;;;;;;;6.45;4.20;;;9.90;93.50;;;;;;5074505;28;20590;-69
2023/03/20 05:03:28;;;;;;;4.80;3.55;;;9.90;93.60;;;;;;5074639;28;20702;-70
2023/03/20 05:05:55;;;;;;;2.95;2.60;;;9.90;93.60;;;;;;5074254;28;20221;-70
2023/03/20 05:08:27;;;;;;;3.95;2.35;;;9.90;93.50;;;;;;5074558;28;20186;-70
2023/03/20 05:11:04;;;;;;;3.50;2.80;;;9.90;93.50;;;;;;5074446;28;20672;-70
2023/03/20 05:13:33;;;;;;;3.80;2.67;;;9.80;93.50;;;;;;5074255;28;20185;-70
2023/03/20 05:16:02;;;;;;;2.80;2.10;;;9.80;93.40;;;;;;5074414;28;20182;-69
2023/03/20 05:18:33;;;;;;;4.78;3.05;;;9.80;93.50;;;;;;5074405;28;20652;-69
2023/03/20 05:21:01;;;;;;;3.20;2.10;;;9.80;93.50;;;;;;5074948;28;20268;-69
2023/03/20 05:23:29;;;;;;;3.60;2.60;;;9.80;93.50;;;;;;5074671;28;20193;-69
2023/03/20 05:25:58;;;;;;;3.65;2.17;;;9.80;93.40;;;;;;5074239;28;20218;-69
2023/03/20 05:28:29;;;;;;;3.45;1.92;;;9.90;93.40;;;;;;5074201;28;20285;-69
2023/03/20 05:30:59;;;;;;;5.10;2.55;;;9.90;93.30;;;;;;5074753;28;20189;-69
2023/03/20 05:33:29;;;;;;;3.83;2.75;;;9.90;93.20;;;;;;5074057;28;20186;-78
2023/03/20 05:35:59;;;;;;;4.65;3.70;;;9.90;93.00;;;;;;5073321;28;20240;-69
2023/03/20 05:38:29;;;;;;;4.82;3.75;;;9.90;92.70;;;;;;5073968;28;20240;-69
2023/03/20 05:41:04;;;;;;;4.20;3.13;;;9.90;92.80;;;;;;5074463;28;20225;-69
2023/03/20 05:43:37;;;;;;;5.55;5.05;;;9.90;93.00;;;;;;5074178;28;20215;-69
2023/03/20 05:46:09;;;;;;;4.70;3.65;;;9.90;92.70;;;;;;5074263;28;20206;-69
2023/03/20 05:48:38;;;;;;;4.55;3.70;;;9.90;92.80;;;;;;5073825;28;20194;-69
2023/03/20 05:51:06;;;;;;;4.10;3.30;;;9.90;92.70;;;;;;5073905;28;20701;-72
2023/03/20 05:53:36;;;;;;;7.45;3.90;;;10.00;92.10;;;;;;5073557;28;20185;-70
2023/03/20 05:56:04;;;;;;;6.18;2.90;;;10.00;92.00;;;;;;5074151;28;20652;-69
2023/03/20 05:58:31;;;;;;;3.40;2.72;;;10.00;92.00;;;;;;5073842;28;20201;-70
2023/03/20 06:01:01;;;;;;;5.10;2.97;;;10.00;91.90;;;;;;5073998;28;20247;-69
2023/03/20 06:03:31;;;;;;;3.55;2.50;;;9.90;92.40;;;;;;5073583;28;20231;-69
2023/03/20 06:06:00;;;;;;;3.05;2.40;;;10.00;91.90;;;;;;5072979;28;20241;-69
2023/03/20 06:08:35;;;;;;;4.10;2.83;;;10.00;91.80;;;;;;5072477;28;20189;-71
2023/03/20 06:11:07;;;;;;;3.85;2.80;;;10.00;91.50;;;;;;5073780;28;20701;-69
2023/03/20 06:13:37;;;;;;;6.10;3.80;;;10.00;91.40;;;;;;5067411;28;20254;-73
2023/03/20 06:16:05;;;;;;;4.10;2.97;;;10.00;91.30;;;;;;5071361;28;20243;-73
2023/03/20 06:18:32;;;;;;;5.18;3.83;;;10.00;91.30;;;;;;5071589;28;20200;-70
2023/03/20 06:21:04;;;;;;;6.28;3.40;;;10.10;91.20;;;;;;5070638;28;20194;-71
2023/03/20 06:23:31;;;;;;;5.10;3.08;;;10.10;91.00;;;;;;5071069;28;20281;-70
2023/03/20 06:25:58;;;;;;;3.50;3.20;;;10.20;90.80;;;;;;5071550;28;20210;-69
2023/03/20 06:28:26;;;;;;;4.20;3.10;;;10.20;90.80;;;;;;5071481;28;20251;-70
2023/03/20 06:30:56;;;;;;;3.80;2.95;;;10.20;90.90;;;;;;5071340;28;20186;-70
2023/03/20 06:33:23;;;;;;;4.68;2.70;;;10.20;90.90;;;;;;5067874;28;20189;-70
2023/03/20 06:35:50;;;;;;;4.47;2.55;;;10.30;90.90;;;;;;5070257;28;20189;-69
2023/03/20 06:38:21;;;;;;;4.70;3.35;;;10.30;90.80;;;;;;5070761;28;20232;-69
2023/03/20 06:40:48;;;;;;;3.65;2.67;;;10.40;90.90;;;;;;5070810;28;20194;-70
2023/03/20 06:43:15;;;;;;;3.53;2.25;;;10.40;90.90;;;;;;5070709;28;20181;-69
2023/03/20 06:45:42;;;;;;;3.40;2.67;;;10.40;90.80;;;;;;5070274;28;20217;-69
2023/03/20 06:48:10;;;;;;;4.38;2.92;;;10.50;90.60;;;;;;5070415;28;20178;-70
2023/03/20 06:50:37;;;;;;;3.00;1.80;;;10.50;90.50;;;;;;5066580;28;20216;-71
2023/03/20 06:53:04;;;;;;;3.10;2.17;;;10.60;90.20;;;;;;5066705;28;20682;-76
2023/03/20 06:55:32;;;;;;;2.85;2.05;;;10.60;90.00;;;;;;5062993;28;20202;-69
2023/03/20 06:58:00;;;;;;;3.13;2.28;;;10.70;89.60;;;;;;5070181;28;20239;-69
2023/03/20 07:00:33;;;;;;;6.10;2.13;;;10.80;89.00;;;;;;5070740;28;20280;-70
2023/03/20 07:03:00;;;;;;;4.05;2.20;;;10.90;88.70;;;;;;5068351;28;20663;-69
2023/03/20 07:05:27;;;;;;;2.95;2.22;;;11.00;87.90;;;;;;5070155;28;20190;-70
2023/03/20 07:07:54;;;;;;;2.85;2.15;;;11.10;87.00;;;;;;5066451;28;20298;-70
2023/03/20 07:10:22;;;;;;;3.25;2.10;;;11.20;85.40;;;;;;5070611;28;20293;-69
2023/03/20 07:12:51;;;;;;;4.07;2.63;;;11.30;85.00;;;;;;5071190;28;20194;-69
2023/03/20 07:15:19;;;;;;;2.80;2.10;;;11.30;83.60;;;;;;5070261;28;20189;-70
2023/03/20 07:17:46;;;;;;;3.05;2.13;;;11.40;82.70;;;;;;5071009;28;20189;-69
2023/03/20 07:20:14;;;;;;;3.20;2.10;;;11.40;82.20;;;;;;5070440;28;20202;-70
2023/03/20 07:22:41;;;;;;;2.85;1.73;;;11.50;81.50;;;;;;5070185;28;20185;-69
2023/03/20 07:25:09;;;;;;;6.63;2.38;;;11.50;81.60;;;;;;5070485;28;20221;-70
2023/03/20 07:27:36;;;;;;;3.03;2.15;;;11.50;80.80;;;;;;5070652;28;20229;-69
2023/03/20 07:30:07;;;;;;;3.47;2.08;;;11.60;81.40;;;;;;5070403;28;20198;-70
2023/03/20 07:32:34;;;;;;;3.42;2.50;;;11.70;81.00;;;;;;5069930;28;20662;-69
2023/03/20 07:35:01;;;;;;;3.30;2.08;;;11.80;81.30;;;;;;5070392;28;20194;-71
2023/03/20 07:37:30;;;;;;;4.28;2.10;;;11.80;81.10;;;;;;5066121;28;20200;-78
2023/03/20 07:39:57;;;;;;;2.17;1.35;;;12.00;78.50;;;;;;5069014;28;20272;-69
2023/03/20 07:42:24;;;;;;;4.55;2.35;;;12.00;78.20;;;;;;5069137;28;20194;-70
2023/03/20 07:44:51;;;;;;;3.10;1.70;;;12.20;77.90;;;;;;5069991;28;20242;-70
2023/03/20 07:47:20;;;;;;;8.05;1.70;;;12.40;77.20;;;;;;5066541;28;21707;-70
2023/03/20 07:49:49;;;;;;;2.63;1.80;;;12.60;77.30;;;;;;5068377;28;20632;-72
2023/03/20 07:52:18;;;;;;;2.92;1.52;;;13.10;76.30;;;;;;5069349;28;20193;-70
2023/03/20 07:54:45;;;;;;;3.25;1.60;;;13.70;73.20;;;;;;5051358;28;20636;-70
2023/03/20 07:57:12;;;;;;;3.87;2.00;;;14.70;70.50;;;;;;5052380;28;20196;-70
2023/03/20 07:59:39;;;;;;;4.30;2.30;;;17.70;64.90;;;;;;5055290;28;20950;-70
2023/03/20 08:02:06;;;;;;;2.87;1.67;;;21.30;54.20;;;;;;5056209;28;20512;-70
2023/03/20 08:04:35;;;;;;;3.03;1.83;;;25.60;43.60;;;;;;5056227;28;20856;-71
2023/03/20 08:07:02;;;;;;;2.90;1.30;;;29.30;33.50;;;;;;5055842;28;20987;-71
2023/03/20 08:09:29;;;;;;;2.87;1.57;;;32.40;28.40;;;;;;5055923;28;20535;-72
2023/03/20 08:11:56;;;;;;;2.10;1.00;;;34.90;24.40;;;;;;5056108;28;20437;-72
2023/03/20 08:14:23;;;;;;;2.00;1.10;;;35.50;21.20;;;;;;5055714;28;20445;-72
2023/03/20 08:16:50;;;;;;;3.20;1.57;;;36.00;19.90;;;;;;5055968;28;20465;-72
2023/03/20 08:19:17;;;;;;;4.60;1.50;;;37.80;19.20;;;;;;5055738;28;20520;-72
2023/03/20 08:21:45;;;;;;;2.60;1.47;;;39.00;16.80;;;;;;5055738;28;20495;-70
2023/03/20 08:24:12;;;;;;;2.60;1.33;;;40.10;16.10;;;;;;5055875;28;20495;-70
2023/03/20 08:26:39;;;;;;;2.97;1.07;;;41.10;15.60;;;;;;5056177;28;20900;-70
2023/03/20 08:29:06;;;;;;;4.47;1.47;;;42.10;15.20;;;;;;5055845;28;20826;-70
2023/03/20 08:31:35;;;;;;;3.00;1.17;;;43.50;14.10;;;;;;5055946;28;20441;-70
2023/03/20 08:34:02;;;;;;;2.90;0.87;;;43.00;12.10;;;;;;5055604;28;20544;-70
2023/03/20 08:36:29;;;;;;;2.60;1.50;;;39.50;13.00;;;;;;5055494;28;20523;-69
2023/03/20 08:38:57;;;;;;;1.90;1.00;;;35.80;14.90;;;;;;5055625;28;20444;-70
2023/03/20 08:41:24;;;;;;;3.20;1.30;;;32.60;17.20;;;;;;5055702;28;20532;-70
2023/03/20 08:43:51;;;;;;;3.63;1.00;;;30.00;19.60;;;;;;5055252;28;20523;-69
2023/03/20 08:46:18;;;;;;;2.87;1.10;;;27.80;21.90;;;;;;5055324;28;20579;-69
2023/03/20 08:48:45;;;;;;;4.13;0.90;;;26.00;24.20;;;;;;5055411;28;20536;-69
2023/03/20 08:51:12;;;;;;;2.10;0.97;;;24.40;25.70;;;;;;5056540;28;20455;-71
2023/03/20 08:53:39;;;;;;;1.93;0.93;;;23.20;26.90;;;;;;5074277;28;20539;-71
2023/03/20 08:56:09;;;;;;;2.10;1.10;;;22.10;28.70;;;;;;5074127;28;20530;-70
2023/03/20 08:58:36;;;;;;;1.93;0.70;;;21.20;30.00;;;;;;5074205;28;20458;-70
2023/03/20 09:01:07;;;;;;;3.20;1.40;;;20.60;31.20;;;;;;5074014;28;20444;-71
2023/03/20 09:03:34;;;;;;;7.83;4.20;;;20.70;33.50;;;;;;5073978;28;20444;-71
2023/03/20 09:06:01;;;;;;;4.37;2.07;;;21.30;32.70;;;;;;5069636;28;20491;-71
2023/03/20 09:08:28;;;;;;;14.73;9.00;;;21.10;31.20;;;;;;5074104;28;20531;-71
2023/03/20 09:10:55;;;;;;;3.00;1.67;;;20.80;32.00;;;;;;5066166;28;20525;-70
2023/03/20 09:13:24;;;;;;;3.47;1.67;;;20.40;33.00;;;;;;5070678;28;20501;-71
2023/03/20 09:15:51;;;;;;;9.10;8.20;;;20.00;33.30;;;;;;5069108;28;20443;-71
2023/03/20 09:18:19;;;;;;;4.00;3.03;;;19.50;33.60;;;;;;5073519;28;20452;-72
2023/03/20 09:20:47;;;;;;;2.87;1.30;;;19.10;35.00;;;;;;5073703;28;20436;-70
2023/03/20 09:23:14;;;;;;;2.00;1.20;;;19.20;36.10;;;;;;5073684;28;22299;-71
2023/03/20 09:25:41;;;;;;;3.93;1.00;;;20.00;35.10;;;;;;5072922;28;20523;-71
2023/03/20 09:28:08;;;;;;;3.00;0.90;;;23.00;31.30;;;;;;5073575;28;20519;-71
2023/03/20 09:30:37;;;;;;;2.27;0.70;;;25.50;28.30;;;;;;5070590;28;20968;-71
2023/03/20 09:33:03;;;;;;;1.80;0.70;;;27.80;25.70;;;;;;5073386;28;20787;-71
2023/03/20 09:35:31;;;;;;;1.77;0.70;;;29.50;24.70;;;;;;5073031;28;20531;-72
2023/03/20 09:37:57;;;;;;;1.83;0.77;;;33.50;22.60;;;;;;5073117;28;20440;-72
2023/03/20 09:40:29;;;;;;;2.20;0.80;;;36.20;18.50;;;;;;5073289;28;20528;-71
2023/03/20 09:43:04;;;;;;;1.80;0.60;;;39.20;15.60;;;;;;5071372;28;20447;-70
2023/03/20 09:45:49;;;;;;;1.77;0.80;;;40.80;14.30;;;;;;5071504;28;20878;-71
2023/03/20 09:48:25;;;;;;;1.80;0.67;;;43.90;13.30;;;;;;5073264;28;20475;-71
2023/03/20 09:50:58;;;;;;;1.70;0.60;;;44.60;10.70;;;;;;5072608;28;20505;-70
2023/03/20 09:53:30;;;;;;;2.70;0.73;;;43.60;11.20;;;;;;5070943;28;20440;-71
2023/03/20 09:55:58;;;;;;;2.87;0.90;;;45.00;11.00;;;;;;5071063;28;20475;-71
2023/03/20 09:58:27;;;;;;;1.70;0.70;;;47.10;9.90;;;;;;5070943;28;20478;-72
2023/03/20 10:00:59;;;;;;;3.10;0.87;;;48.60;8.80;;;;;;5072754;28;20519;-72
2023/03/20 10:03:30;;;;;;;1.90;0.77;;;49.40;8.40;;;;;;5070729;28;20514;-71
2023/03/20 10:06:02;;;;;;;4.50;0.90;;;50.20;8.00;;;;;;5070348;28;20440;-71
2023/03/20 10:08:32;;;;;;;2.03;0.77;;;50.80;7.90;;;;;;5072816;28;20486;-71
2023/03/20 10:11:18;;;;;;;1.60;0.60;;;51.40;7.10;;;;;;5071014;28;20486;-72
2023/03/20 10:14:03;;;;;;;2.10;1.10;;;49.50;6.70;;;;;;5070747;28;20479;-71
2023/03/20 10:16:43;;;;;;;2.03;0.90;;;;;;;;;;5071288;28;20526;-70
2023/03/20 10:19:15;;;;;;;1.83;0.80;;;;;;;;;;5072477;28;20490;-70
2023/03/20 10:21:44;;;;;;;1.90;0.83;;;;;;;;;;5072297;28;20799;-70
2023/03/20 10:24:18;;;;;;;2.00;0.90;;;44.50;7.60;;;;;;5072195;28;20440;-70
2023/03/20 10:26:50;;;;;;;2.00;0.90;;;39.30;13.00;;;;;;5070092;28;20485;-72
2023/03/20 10:29:25;;;;;;;1.90;0.80;;;42.30;10.70;;;;;;5072475;28;20489;-72
2023/03/20 10:32:00;;;;;;;2.17;1.00;;;45.10;10.20;;;;;;5072515;28;20431;-71
2023/03/20 10:34:41;;;;;;;1.87;0.90;;;47.60;9.10;;;;;;5071693;28;20446;-71
2023/03/20 10:37:27;;;;;;;2.33;0.90;;;48.70;8.30;;;;;;5070456;28;20817;-71
2023/03/20 10:40:04;;;;;;;2.40;0.90;;;49.00;8.30;;;;;;5071086;28;20432;-71
2023/03/20 10:42:37;;;;;;;1.70;0.63;;;46.70;7.60;;;;;;5071118;28;20443;-70
2023/03/20 10:45:07;;;;;;;1.80;0.80;;;;;;;;;;5071996;28;20536;-70
2023/03/20 10:47:37;;;;;;;2.10;0.97;;;;;;;;;;5072208;28;20798;-70
2023/03/20 10:50:06;;;;;;;4.57;1.00;;;;;;;;;;5071577;28;20952;-72
2023/03/20 10:52:36;;;;;;;3.27;0.83;;;;;;;;;;5071918;28;20827;-72
2023/03/20 10:55:07;;;;;;;2.13;0.87;;;;;;;;;;5071193;28;20954;-71
2023/03/20 10:57:37;;;;;;;2.37;0.93;;;;;;;;;;5071758;28;20571;-71
2023/03/20 11:00:09;;;;;;;2.00;0.80;;;;;;;;;;5071230;28;21006;-72
2023/03/20 11:02:38;;;;;;;1.80;0.80;;;;;;;;;;5070764;28;20438;-72
2023/03/20 11:05:11;;;;;;;2.23;0.80;;;;;;;;;;5069726;28;20532;-71
2023/03/20 11:07:38;;;;;;;1.80;0.80;;;;;;;;;;5070913;28;20511;-71
2023/03/20 11:10:11;;;;;;;2.50;1.00;;;;;;;;;;5071868;28;20440;-71
2023/03/20 11:12:39;;;;;;;1.80;0.80;;;;;;;;;;5071381;28;20452;-71
2023/03/20 11:15:15;;;;;;;1.70;0.80;;;;;;;;;;5071339;28;20448;-71
2023/03/20 11:17:51;;;;;;;3.40;1.10;;;;;;;;;;5071346;28;20566;-71
2023/03/20 11:20:18;;;;;;;2.00;0.90;;;;;;;;;;5071841;28;20987;-71
2023/03/20 11:22:47;;;;;;;2.57;0.90;;;;;;;;;;5071508;28;20493;-71
2023/03/20 11:25:24;;;;;;;2.17;1.07;;;;;;;;;;5067904;28;20463;-70
2023/03/20 11:27:51;;;;;;;2.30;1.17;;;;;;;;;;5068857;28;20481;-71
2023/03/20 11:30:19;;;;;;;2.17;1.07;;;;;;;;;;5071667;28;20486;-70
2023/03/20 11:32:49;;;;;;;2.00;0.90;;;;;;;;;;5070954;28;20440;-71
2023/03/20 11:35:21;;;;;;;2.00;1.10;;;;;;;;;;5068322;28;20436;-71
2023/03/20 11:37:49;;;;;;;1.90;0.90;;;;;;;;;;5067648;28;20484;-70
2023/03/20 11:40:18;;;;;;;2.33;1.23;;;;;;;;;;5071205;28;20531;-70
2023/03/20 11:42:52;;;;;;;2.47;1.17;;;;;;;;;;5066717;28;20969;-71
2023/03/20 11:45:20;;;;;;;2.67;1.20;;;;;;;;;;5058992;28;20433;-70
2023/03/20 11:47:51;;;;;;;6.90;3.80;;;;;;;;;;5063236;28;20475;-71
2023/03/20 11:50:31;;;;;;;2.60;1.10;;;;;;;;;;5068181;28;20906;-70
2023/03/20 11:52:59;;;;;;;2.20;1.00;;;;;;;;;;5071358;28;20427;-70
2023/03/20 11:55:28;;;;;;;2.10;1.17;;;;;;;;;;5069022;28;20528;-70
2023/03/20 11:57:59;;;;;;;2.30;1.20;;;;;;;;;;5067826;28;20523;-70
2023/03/20 12:00:29;;;;;;;2.30;1.20;;;;;;;;;;5068021;28;20439;-70
2023/03/20 12:02:57;;;;;;;2.33;1.03;;;;;;;;;;5067903;28;20513;-70
2023/03/20 12:05:29;;;;;;;1.90;1.10;;;;;;;;;;5064916;28;20467;-70
2023/03/20 12:07:58;;;;;;;2.10;1.00;;;;;;;;;;5068993;28;21020;-70
2023/03/20 12:10:29;;;;;;;2.30;1.10;;;;;;;;;;5070965;28;20976;-70
2023/03/20 12:12:57;;;;;;;2.03;1.03;;;;;;;;;;5068953;28;20444;-71
2023/03/20 12:15:26;;;;;;;6.00;1.43;;;;;;;;;;5071102;28;20472;-70
2023/03/20 12:17:55;;;;;;;2.47;1.07;;;;;;;;;;5071390;28;20432;-70
2023/03/20 12:20:31;;;;;;;2.20;1.20;;;;;;;;;;5071234;28;20910;-70
2023/03/20 12:23:04;;;;;;;2.37;1.10;;;;;;;;;;5068865;28;20444;-70
2023/03/20 12:25:36;;;;;;;2.50;1.33;;;;;;;;;;5069404;28;20892;-70
2023/03/20 12:28:05;;;;;;;2.23;1.20;;;;;;;;;;5069670;28;20507;-70
2023/03/20 12:30:36;;;;;;;2.10;1.37;;;;;;;;;;5068686;28;20927;-70
2023/03/20 12:33:07;;;;;;;3.60;1.40;;;;;;;;;;5067209;28;20476;-70
2023/03/20 12:35:38;;;;;;;2.93;1.40;;;;;;;;;;5070940;28;20459;-70
2023/03/20 12:38:11;;;;;;;3.63;1.07;;;;;;;;;;5070229;28;20479;-70
2023/03/20 12:40:42;;;;;;;3.40;1.43;;;;;;;;;;5070445;28;20867;-70
2023/03/20 12:43:12;;;;;;;2.10;1.20;;;;;;;;;;5071371;28;20451;-70
2023/03/20 12:45:41;;;;;;;5.60;1.60;;;;;;;;;;5073545;28;20517;-70
2023/03/20 12:48:18;;;;;;;2.47;1.20;;;;;;;;;;5074495;28;20487;-70
2023/03/20 12:50:50;;;;;;;2.27;1.23;;;;;;;;;;5075615;28;20438;-71
2023/03/20 12:53:25;;;;;;;3.60;1.40;;;;;;;;;;5075674;28;20475;-71
2023/03/20 12:55:59;;;;;;;4.43;1.63;;;;;;;;;;5073760;28;20436;-70
2023/03/20 12:58:33;;;;;;;2.17;1.23;;;;;;;;;;5075281;28;20440;-70
2023/03/20 13:01:02;;;;;;;2.20;1.07;;;;;;;;;;5075694;28;20518;-70
2023/03/20 13:03:42;;;;;;;3.47;1.47;;;;;;;;;;5075337;28;20911;-70
2023/03/20 13:06:14;;;;;;;3.23;1.20;;;;;;;;;;5075268;28;20482;-70
2023/03/20 13:08:50;;;;;;;2.50;1.30;;;;;;;;;;5074911;28;20480;-70
2023/03/20 13:11:24;;;;;;;2.70;1.50;;;;;;;;;;5075336;28;20471;-71
2023/03/20 13:13:55;;;;;;;4.23;1.33;;;;;;;;;;5075319;28;20535;-70
2023/03/20 13:16:27;;;;;;;2.40;1.30;;;;;;;;;;5075468;28;20498;-70
2023/03/20 13:18:59;;;;;;;2.77;1.50;;;;;;;;;;5074944;28;20874;-70
2023/03/20 13:21:32;;;;;;;2.20;1.13;;;;;;;;;;5075332;28;20432;-71
2023/03/20 13:24:05;;;;;;;2.33;1.37;;;;;;;;;;5074725;28;20428;-70
2023/03/20 13:26:36;;;;;;;4.20;1.80;;;;;;;;;;5075275;28;20917;-70
2023/03/20 13:29:06;;;;;;;2.40;1.53;;;;;;;;;;5074925;28;20503;-70
2023/03/20 13:31:40;;;;;;;4.07;1.33;;;;;;;;;;5074909;28;20471;-70
2023/03/20 13:34:13;;;;;;;2.37;1.40;;;;;;;;;;5074873;28;20503;-70